createdAt,value
2023-02-27T00:00:19.469Z,102086.38
2023-02-27T00:02:48.130Z,102085.47
2023-02-27T00:05:15.525Z,102086.31
2023-02-27T00:07:42.626Z,102096.84
2023-02-27T00:10:10.880Z,102088.31
2023-02-27T00:12:40.593Z,102100.59
2023-02-27T00:15:09.712Z,102103.31
2023-02-27T00:17:36.458Z,102105.69
2023-02-27T00:20:04.273Z,102108.78
2023-02-27T00:22:31.075Z,102115.69
2023-02-27T00:24:57.749Z,102119.25
2023-02-27T00:27:25.014Z,102131.56
2023-02-27T00:29:51.654Z,102130.53
2023-02-27T00:32:18.373Z,102126.84
2023-02-27T00:34:45.015Z,102119.16
2023-02-27T00:37:11.751Z,102123.84
2023-02-27T00:39:38.401Z,102125.06
2023-02-27T00:42:05.074Z,102127.97
2023-02-27T00:44:31.722Z,102129.16
2023-02-27T00:46:58.388Z,102125.94
2023-02-27T00:49:25.618Z,102127.09
2023-02-27T00:51:53.330Z,102130.88
2023-02-27T00:54:20.420Z,102118.88
2023-02-27T00:56:47.040Z,102126.06
2023-02-27T00:59:13.683Z,102122.66
2023-02-27T01:01:40.667Z,102129.34
2023-02-27T01:04:07.789Z,102131.66
2023-02-27T01:06:34.465Z,102124.47
2023-02-27T01:09:01.157Z,102129.69
2023-02-27T01:11:28.771Z,102132.34
2023-02-27T01:13:55.413Z,102132.47
2023-02-27T01:16:22.142Z,102138.56
2023-02-27T01:18:48.967Z,102133.34
2023-02-27T01:21:15.730Z,102142.91
2023-02-27T01:23:42.485Z,102134.22
2023-02-27T01:26:09.208Z,102132.63
2023-02-27T01:28:35.869Z,102139.69
2023-02-27T01:31:02.604Z,102126.84
2023-02-27T01:33:29.482Z,102123.56
2023-02-27T01:35:56.147Z,102132.56
2023-02-27T01:38:22.826Z,102136.16
2023-02-27T01:40:49.633Z,102139.00
2023-02-27T01:43:19.681Z,102135.66
2023-02-27T01:45:48.930Z,102135.75
2023-02-27T01:48:24.714Z,102141.09
2023-02-27T01:51:15.693Z,102144.69
2023-02-27T01:53:45.262Z,102136.97
2023-02-27T01:56:20.463Z,102143.06
2023-02-27T01:58:48.982Z,102161.19
2023-02-27T02:01:16.434Z,102167.13
2023-02-27T02:03:51.292Z,102166.16
2023-02-27T02:06:19.008Z,102157.50
2023-02-27T02:08:48.143Z,102159.41
2023-02-27T02:11:18.049Z,102158.66
2023-02-27T02:13:45.109Z,102161.38
2023-02-27T02:16:39.655Z,102162.41
2023-02-27T02:19:06.274Z,102153.06
2023-02-27T02:22:07.517Z,102146.22
2023-02-27T02:24:37.195Z,102155.91
2023-02-27T02:27:19.071Z,102148.09
2023-02-27T02:30:07.285Z,102162.81
2023-02-27T02:32:39.717Z,102177.50
2023-02-27T02:35:40.723Z,102177.38
2023-02-27T02:38:22.245Z,102177.38
2023-02-27T02:41:04.243Z,102166.19
2023-02-27T02:43:43.074Z,102165.53
2023-02-27T02:46:40.469Z,102151.84
2023-02-27T02:49:13.163Z,102159.03
2023-02-27T02:51:42.360Z,102158.28
2023-02-27T02:54:33.837Z,102156.72
2023-02-27T02:57:05.587Z,102165.44
2023-02-27T02:59:50.090Z,102168.13
2023-02-27T03:02:26.212Z,102164.63
2023-02-27T03:05:08.174Z,102174.03
2023-02-27T03:07:37.814Z,102172.25
2023-02-27T03:10:09.993Z,102175.69
2023-02-27T03:12:41.092Z,102171.41
2023-02-27T03:15:42.865Z,102171.50
2023-02-27T03:18:21.538Z,102181.25
2023-02-27T03:21:02.021Z,102173.47
2023-02-27T03:23:36.045Z,102182.25
2023-02-27T03:26:04.888Z,102187.47
2023-02-27T03:28:35.923Z,102187.56
2023-02-27T03:31:23.958Z,102192.00
2023-02-27T03:34:01.417Z,102203.34
2023-02-27T03:36:49.732Z,102202.53
2023-02-27T03:39:19.276Z,102201.69
2023-02-27T03:41:58.910Z,102206.94
2023-02-27T03:44:25.498Z,102211.38
2023-02-27T03:46:52.222Z,102199.22
2023-02-27T03:49:18.904Z,102215.06
2023-02-27T03:51:46.015Z,102208.31
2023-02-27T03:54:21.625Z,102211.91
2023-02-27T03:56:55.969Z,102207.66
2023-02-27T03:59:24.619Z,102210.38
2023-02-27T04:01:52.383Z,102207.94
2023-02-27T04:04:19.405Z,102213.28
2023-02-27T04:07:12.676Z,102221.25
2023-02-27T04:09:57.994Z,102227.41
2023-02-27T04:12:46.090Z,102224.91
2023-02-27T04:15:40.346Z,102232.81
2023-02-27T04:18:32.501Z,102238.13
2023-02-27T04:21:22.215Z,102229.44
2023-02-27T04:23:57.019Z,102242.63
2023-02-27T04:26:23.582Z,102247.06
2023-02-27T04:29:05.507Z,102247.16
2023-02-27T04:31:39.515Z,102240.25
2023-02-27T04:34:11.109Z,102244.66
2023-02-27T04:36:46.308Z,102242.13
2023-02-27T04:39:26.430Z,102239.53
2023-02-27T04:42:11.541Z,102244.84
2023-02-27T04:44:39.756Z,102240.56
2023-02-27T04:47:10.608Z,102240.59
2023-02-27T04:49:51.825Z,102244.09
2023-02-27T04:52:24.724Z,102238.94
2023-02-27T04:55:20.927Z,102242.50
2023-02-27T04:57:54.362Z,102236.53
2023-02-27T05:00:24.911Z,102240.97
2023-02-27T05:03:09.492Z,102235.72
2023-02-27T05:05:38.465Z,102246.28
2023-02-27T05:08:33.298Z,102247.19
2023-02-27T05:11:14.324Z,102254.22
2023-02-27T05:13:48.060Z,102255.97
2023-02-27T05:16:33.193Z,102259.47
2023-02-27T05:19:01.920Z,102244.75
2023-02-27T05:21:40.422Z,102250.09
2023-02-27T05:24:30.585Z,102251.91
2023-02-27T05:27:17.563Z,102251.09
2023-02-27T05:29:53.599Z,102258.09
2023-02-27T05:32:26.872Z,102242.50
2023-02-27T05:35:29.097Z,102246.94
2023-02-27T05:38:20.224Z,102247.03
2023-02-27T05:40:52.426Z,102248.78
2023-02-27T05:43:24.928Z,102253.06
2023-02-27T05:45:56.344Z,102253.97
2023-02-27T05:48:35.611Z,102252.25
2023-02-27T05:51:03.621Z,102248.78
2023-02-27T05:53:34.771Z,102242.69
2023-02-27T05:56:05.441Z,102238.34
2023-02-27T05:58:44.277Z,102234.88
2023-02-27T06:01:12.256Z,102241.88
2023-02-27T06:03:41.155Z,102248.88
2023-02-27T06:06:13.622Z,102251.56
2023-02-27T06:08:41.043Z,102255.91
2023-02-27T06:11:07.786Z,102259.31
2023-02-27T06:13:34.521Z,102264.56
2023-02-27T06:16:01.388Z,102275.88
2023-02-27T06:18:28.075Z,102272.38
2023-02-27T06:20:54.730Z,102275.09
2023-02-27T06:23:21.381Z,102271.63
2023-02-27T06:25:49.223Z,102276.94
2023-02-27T06:28:16.051Z,102273.53
2023-02-27T06:30:43.943Z,102288.41
2023-02-27T06:33:12.497Z,102285.81
2023-02-27T06:35:39.659Z,102287.59
2023-02-27T06:38:06.371Z,102288.53
2023-02-27T06:40:33.004Z,102287.66
2023-02-27T06:42:59.662Z,102289.44
2023-02-27T06:45:26.395Z,102289.50
2023-02-27T06:47:53.135Z,102293.91
2023-02-27T06:50:20.287Z,102291.34
2023-02-27T06:52:47.049Z,102299.28
2023-02-27T06:55:13.785Z,102295.94
2023-02-27T06:57:40.453Z,102300.47
2023-02-27T07:00:08.294Z,102299.69
2023-02-27T07:02:34.952Z,102310.31
2023-02-27T07:05:07.780Z,102307.78
2023-02-27T07:07:37.670Z,102303.53
2023-02-27T07:10:11.915Z,102314.97
2023-02-27T07:12:39.938Z,102310.69
2023-02-27T07:15:08.103Z,102303.00
2023-02-27T07:17:34.863Z,102310.88
2023-02-27T07:20:01.579Z,102313.66
2023-02-27T07:22:28.228Z,102320.72
2023-02-27T07:24:54.896Z,102315.56
2023-02-27T07:27:21.554Z,102318.34
2023-02-27T07:29:48.184Z,102320.19
2023-02-27T07:32:14.863Z,102325.56
2023-02-27T07:34:41.602Z,102330.88
2023-02-27T07:37:08.226Z,102333.56
2023-02-27T07:39:34.909Z,102329.28
2023-02-27T07:42:01.570Z,102338.13
2023-02-27T07:44:28.306Z,102333.88
2023-02-27T07:46:55.002Z,102341.84
2023-02-27T07:49:21.725Z,102335.81
2023-02-27T07:51:48.375Z,102333.25
2023-02-27T07:54:15.103Z,102333.34
2023-02-27T07:56:41.780Z,102340.41
2023-02-27T07:59:08.569Z,102346.66
2023-02-27T08:01:35.222Z,102348.44
2023-02-27T08:04:01.888Z,102350.25
2023-02-27T08:06:28.910Z,102357.34
2023-02-27T08:08:55.849Z,102350.41
2023-02-27T08:11:22.584Z,102360.13
2023-02-27T08:14:05.426Z,102363.72
2023-02-27T08:16:32.836Z,102365.59
2023-02-27T08:19:00.990Z,102357.81
2023-02-27T08:21:28.806Z,102371.88
2023-02-27T08:23:55.764Z,102382.44
2023-02-27T08:26:22.655Z,102387.81
2023-02-27T08:28:49.436Z,102381.75
2023-02-27T08:31:16.322Z,102384.44
2023-02-27T08:33:43.016Z,102389.75
2023-02-27T08:36:10.252Z,102389.84
2023-02-27T08:38:37.183Z,102399.53
2023-02-27T08:41:04.502Z,102401.38
2023-02-27T08:43:31.172Z,102408.47
2023-02-27T08:45:58.163Z,102410.25
2023-02-27T08:48:24.996Z,102412.97
2023-02-27T08:50:52.375Z,102419.19
2023-02-27T08:53:19.497Z,102419.31
2023-02-27T08:55:50.145Z,102422.81
2023-02-27T08:58:18.176Z,102429.88
2023-02-27T09:00:45.674Z,102439.63
2023-02-27T09:03:17.769Z,102442.31
2023-02-27T09:05:44.428Z,102444.16
2023-02-27T09:08:11.809Z,102454.72
2023-02-27T09:10:38.483Z,102442.53
2023-02-27T09:13:05.186Z,102455.72
2023-02-27T09:15:34.547Z,102452.34
2023-02-27T09:18:03.328Z,102457.66
2023-02-27T09:20:31.841Z,102459.47
2023-02-27T09:22:59.729Z,102468.28
2023-02-27T09:25:27.324Z,102460.50
2023-02-27T09:27:54.221Z,102468.47
2023-02-27T09:30:21.310Z,102459.78
2023-02-27T09:32:48.100Z,102469.53
2023-02-27T09:35:17.615Z,102468.78
2023-02-27T09:37:44.368Z,102475.88
2023-02-27T09:40:37.832Z,102469.84
2023-02-27T09:43:14.655Z,102460.28
2023-02-27T09:45:42.212Z,102472.66
2023-02-27T09:48:28.784Z,102467.50
2023-02-27T09:50:57.178Z,102474.69
2023-02-27T09:53:27.657Z,102465.13
2023-02-27T09:56:04.496Z,102464.38
2023-02-27T09:58:55.686Z,102471.56
2023-02-27T10:01:32.032Z,102469.88
2023-02-27T10:04:35.997Z,102466.41
2023-02-27T10:07:44.779Z,102477.03
2023-02-27T10:10:11.390Z,102474.44
2023-02-27T10:12:58.504Z,102475.38
2023-02-27T10:15:36.936Z,102479.91
2023-02-27T10:18:27.010Z,102472.94
2023-02-27T10:21:10.522Z,102475.66
2023-02-27T10:23:44.129Z,102468.75
2023-02-27T10:26:24.966Z,102471.47
2023-02-27T10:28:51.856Z,102475.06
2023-02-27T10:31:23.886Z,102474.25
2023-02-27T10:33:52.299Z,102474.31
2023-02-27T10:36:33.093Z,102472.59
2023-02-27T10:39:15.602Z,102468.34
2023-02-27T10:41:45.472Z,102462.22
2023-02-27T10:44:16.528Z,102460.53
2023-02-27T10:46:43.504Z,102463.19
2023-02-27T10:49:19.491Z,102462.38
2023-02-27T10:51:48.054Z,102454.56
2023-02-27T10:54:24.664Z,102457.28
2023-02-27T10:56:54.635Z,102452.03
2023-02-27T10:59:33.084Z,102454.75
2023-02-27T11:02:21.792Z,102458.31
2023-02-27T11:04:58.693Z,102460.06
2023-02-27T11:07:28.114Z,102463.72
2023-02-27T11:10:05.129Z,102463.78
2023-02-27T11:12:35.471Z,102465.59
2023-02-27T11:15:22.137Z,102463.03
2023-02-27T11:17:49.078Z,102463.97
2023-02-27T11:20:37.698Z,102469.31
2023-02-27T11:23:06.145Z,102459.69
2023-02-27T11:25:33.701Z,102470.25
2023-02-27T11:28:30.420Z,102465.00
2023-02-27T11:31:02.118Z,102465.00
2023-02-27T11:33:31.765Z,102469.47
2023-02-27T11:35:59.603Z,102473.88
2023-02-27T11:38:29.072Z,102463.34
2023-02-27T11:41:07.300Z,102458.91
2023-02-27T11:43:33.878Z,102462.44
2023-02-27T11:46:29.542Z,102472.16
2023-02-27T11:49:24.721Z,102461.59
2023-02-27T11:52:03.185Z,102461.59
2023-02-27T11:54:48.667Z,102463.38
2023-02-27T11:57:35.147Z,102465.19
2023-02-27T12:00:08.846Z,102465.19
2023-02-27T12:02:50.533Z,102466.09
2023-02-27T12:05:44.390Z,102460.84
2023-02-27T12:08:36.076Z,102461.75
2023-02-27T12:11:16.023Z,102452.09
2023-02-27T12:13:47.439Z,102449.47
2023-02-27T12:16:22.497Z,102448.63
2023-02-27T12:18:56.041Z,102447.72
2023-02-27T12:21:27.252Z,102451.25
2023-02-27T12:23:59.063Z,102454.78
2023-02-27T12:26:39.995Z,102455.63
2023-02-27T12:29:40.531Z,102452.13
2023-02-27T12:32:42.948Z,102457.44
2023-02-27T12:35:27.951Z,102462.72
2023-02-27T12:37:55.716Z,102466.25
2023-02-27T12:40:39.414Z,102468.03
2023-02-27T12:43:11.996Z,102472.41
2023-02-27T12:45:53.721Z,102466.28
2023-02-27T12:48:48.027Z,102460.13
2023-02-27T12:51:36.228Z,102454.88
2023-02-27T12:54:27.110Z,102453.09
2023-02-27T12:57:05.668Z,102459.28
2023-02-27T13:00:09.453Z,102443.44
2023-02-27T13:02:54.726Z,102445.22
2023-02-27T13:05:45.780Z,102448.75
2023-02-27T13:08:39.038Z,102439.97
2023-02-27T13:11:12.153Z,102441.75
2023-02-27T13:13:44.123Z,102442.63
2023-02-27T13:16:17.744Z,102441.78
2023-02-27T13:18:54.512Z,102449.66
2023-02-27T13:21:39.963Z,102439.13
2023-02-27T13:24:20.675Z,102443.53
2023-02-27T13:26:55.978Z,102440.91
2023-02-27T13:29:34.946Z,102443.53
2023-02-27T13:32:29.975Z,102440.94
2023-02-27T13:35:31.258Z,102450.63
2023-02-27T13:38:05.336Z,102447.97
2023-02-27T13:40:40.254Z,102450.63
2023-02-27T13:43:33.193Z,102454.16
2023-02-27T13:46:34.345Z,102455.03
2023-02-27T13:49:20.050Z,102457.69
2023-02-27T13:51:56.760Z,102453.28
2023-02-27T13:54:39.516Z,102457.69
2023-02-27T13:57:19.028Z,102453.28
2023-02-27T13:59:54.019Z,102453.28
2023-02-27T14:02:46.624Z,102448.88
2023-02-27T14:05:32.866Z,102450.66
2023-02-27T14:08:10.742Z,102454.16
2023-02-27T14:10:40.595Z,102457.69
2023-02-27T14:13:45.358Z,102456.84
2023-02-27T14:16:33.509Z,102460.34
2023-02-27T14:19:01.669Z,102458.56
2023-02-27T14:21:49.870Z,102455.06
2023-02-27T14:24:20.753Z,102460.34
2023-02-27T14:26:47.766Z,102456.84
2023-02-27T14:29:18.582Z,102452.41
2023-02-27T14:31:45.949Z,102456.81
2023-02-27T14:34:16.302Z,102460.34
2023-02-27T14:36:47.443Z,102463.00
2023-02-27T14:39:35.080Z,102462.13
2023-02-27T14:42:39.323Z,102462.97
2023-02-27T14:45:15.598Z,102463.00
2023-02-27T14:47:42.854Z,102465.63
2023-02-27T14:50:25.374Z,102460.34
2023-02-27T14:52:52.358Z,102457.69
2023-02-27T14:55:27.950Z,102457.69
2023-02-27T14:57:56.151Z,102455.03
2023-02-27T15:00:35.030Z,102454.13
2023-02-27T15:03:16.418Z,102461.19
2023-02-27T15:05:43.335Z,102451.50
2023-02-27T15:08:23.874Z,102450.63
2023-02-27T15:10:53.002Z,102451.47
2023-02-27T15:13:24.683Z,102455.00
2023-02-27T15:15:53.944Z,102452.34
2023-02-27T15:18:23.114Z,102445.31
2023-02-27T15:20:58.010Z,102452.34
2023-02-27T15:23:28.203Z,102457.59
2023-02-27T15:25:57.324Z,102454.94
2023-02-27T15:28:26.948Z,102455.81
2023-02-27T15:30:55.937Z,102453.19
2023-02-27T15:33:30.825Z,102443.50
2023-02-27T15:35:58.566Z,102439.94
2023-02-27T15:38:34.449Z,102448.75
2023-02-27T15:41:03.485Z,102447.81
2023-02-27T15:43:31.484Z,102447.81
2023-02-27T15:45:58.540Z,102442.50
2023-02-27T15:48:26.052Z,102440.75
2023-02-27T15:51:03.816Z,102435.44
2023-02-27T15:53:34.127Z,102446.84
2023-02-27T15:56:04.703Z,102447.69
2023-02-27T15:58:35.574Z,102447.69
2023-02-27T16:01:06.180Z,102448.50
2023-02-27T16:03:37.232Z,102444.06
2023-02-27T16:06:12.228Z,102440.53
2023-02-27T16:08:46.401Z,102443.09
2023-02-27T16:11:34.714Z,102452.72
2023-02-27T16:14:02.126Z,102445.59
2023-02-27T16:16:36.215Z,102449.97
2023-02-27T16:19:28.078Z,102452.56
2023-02-27T16:22:14.466Z,102454.25
2023-02-27T16:24:45.314Z,102454.19
2023-02-27T16:27:31.902Z,102451.47
2023-02-27T16:30:03.058Z,102453.19
2023-02-27T16:32:36.111Z,102449.59
2023-02-27T16:35:08.549Z,102453.94
2023-02-27T16:37:38.052Z,102458.28
2023-02-27T16:40:15.508Z,102461.75
2023-02-27T16:42:42.980Z,102462.56
2023-02-27T16:45:27.531Z,102454.63
2023-02-27T16:47:56.975Z,102465.13
2023-02-27T16:50:31.764Z,102470.31
2023-02-27T16:52:58.466Z,102478.19
2023-02-27T16:55:26.008Z,102478.16
2023-02-27T16:57:52.737Z,102479.84
2023-02-27T17:00:20.860Z,102479.81
2023-02-27T17:02:48.330Z,102484.13
2023-02-27T17:05:15.581Z,102484.97
2023-02-27T17:07:42.891Z,102477.91
2023-02-27T17:10:16.361Z,102491.03
2023-02-27T17:12:44.145Z,102492.72
2023-02-27T17:15:11.269Z,102480.41
2023-02-27T17:17:37.967Z,102490.00
2023-02-27T17:20:07.404Z,102496.97
2023-02-27T17:22:42.972Z,102491.63
2023-02-27T17:25:11.411Z,102492.47
2023-02-27T17:27:38.405Z,102488.88
2023-02-27T17:30:06.596Z,102492.31
2023-02-27T17:32:34.663Z,102497.50
2023-02-27T17:35:02.791Z,102495.63
2023-02-27T17:37:29.550Z,102488.53
2023-02-27T17:39:56.232Z,102490.22
2023-02-27T17:42:25.776Z,102491.06
2023-02-27T17:44:52.583Z,102484.00
2023-02-27T17:47:19.565Z,102490.94
2023-02-27T17:49:46.283Z,102497.91
2023-02-27T17:52:13.150Z,102500.47
2023-02-27T17:54:40.025Z,102493.38
2023-02-27T17:57:06.928Z,102490.69
2023-02-27T17:59:33.736Z,102499.38
2023-02-27T18:02:00.403Z,102493.19
2023-02-27T18:04:27.073Z,102497.53
2023-02-27T18:06:54.232Z,102490.50
2023-02-27T18:09:20.974Z,102499.25
2023-02-27T18:11:47.722Z,102494.00
2023-02-27T18:14:14.394Z,102496.63
2023-02-27T18:16:42.630Z,102488.75
2023-02-27T18:19:09.434Z,102489.59
2023-02-27T18:21:36.138Z,102487.81
2023-02-27T18:24:02.969Z,102485.13
2023-02-27T18:26:32.925Z,102487.75
2023-02-27T18:29:04.320Z,102480.72
2023-02-27T18:31:34.795Z,102484.22
2023-02-27T18:34:02.562Z,102483.34
2023-02-27T18:36:30.429Z,102478.94
2023-02-27T18:38:58.518Z,102476.28
2023-02-27T18:41:25.316Z,102478.88
2023-02-27T18:43:52.055Z,102473.53
2023-02-27T18:46:18.942Z,102474.34
2023-02-27T18:48:46.239Z,102473.41
2023-02-27T18:51:15.552Z,102471.66
2023-02-27T18:53:45.912Z,102476.84
2023-02-27T18:56:14.031Z,102473.34
2023-02-27T18:58:41.129Z,102475.13
2023-02-27T19:01:08.450Z,102467.22
2023-02-27T19:03:36.024Z,102468.91
2023-02-27T19:06:03.512Z,102460.16
2023-02-27T19:08:30.508Z,102458.34
2023-02-27T19:10:58.557Z,102453.03
2023-02-27T19:13:25.866Z,102456.50
2023-02-27T19:15:54.033Z,102466.97
2023-02-27T19:18:20.726Z,102464.28
2023-02-27T19:20:47.751Z,102470.34
2023-02-27T19:23:14.416Z,102468.59
2023-02-27T19:25:42.126Z,102467.69
2023-02-27T19:28:14.612Z,102469.41
2023-02-27T19:30:41.429Z,102463.28
2023-02-27T19:33:08.921Z,102466.75
2023-02-27T19:35:38.781Z,102461.50
2023-02-27T19:38:05.506Z,102463.25
2023-02-27T19:40:32.315Z,102465.78
2023-02-27T19:43:01.179Z,102455.28
2023-02-27T19:45:28.395Z,102464.03
2023-02-27T19:47:55.150Z,102460.53
2023-02-27T19:50:21.799Z,102454.41
2023-02-27T19:52:48.503Z,102450.84
2023-02-27T19:55:15.219Z,102452.59
2023-02-27T19:57:42.627Z,102454.34
2023-02-27T20:00:10.352Z,102461.34
2023-02-27T20:02:39.011Z,102457.78
2023-02-27T20:05:06.324Z,102452.47
2023-02-27T20:07:33.100Z,102454.22
2023-02-27T20:09:59.814Z,102460.28
2023-02-27T20:12:26.620Z,102450.59
2023-02-27T20:14:53.307Z,102447.09
2023-02-27T20:17:20.029Z,102443.53
2023-02-27T20:19:46.661Z,102441.78
2023-02-27T20:22:13.734Z,102440.84
2023-02-27T20:24:40.400Z,102439.88
2023-02-27T20:27:07.482Z,102435.47
2023-02-27T20:29:34.143Z,102429.25
2023-02-27T20:32:01.286Z,102436.19
2023-02-27T20:34:28.651Z,102439.63
2023-02-27T20:36:56.367Z,102429.97
2023-02-27T20:39:23.811Z,102429.00
2023-02-27T20:41:54.485Z,102444.69
2023-02-27T20:44:21.304Z,102431.44
2023-02-27T20:46:50.729Z,102427.84
2023-02-27T20:49:18.018Z,102433.03
2023-02-27T20:51:45.223Z,102430.34
2023-02-27T20:54:20.091Z,102431.22
2023-02-27T20:56:48.716Z,102430.28
2023-02-27T20:59:16.826Z,102440.75
2023-02-27T21:01:51.535Z,102427.63
2023-02-27T21:04:42.927Z,102428.44
2023-02-27T21:07:15.457Z,102433.69
2023-02-27T21:09:42.355Z,102431.94
2023-02-27T21:12:09.560Z,102428.44
2023-02-27T21:14:37.072Z,102421.44
2023-02-27T21:17:05.774Z,102424.94
2023-02-27T21:19:32.515Z,102440.69
2023-02-27T21:21:59.204Z,102438.06
2023-02-27T21:24:25.968Z,102441.63
2023-02-27T21:26:52.795Z,102447.81
2023-02-27T21:29:21.358Z,102446.94
2023-02-27T21:31:50.358Z,102449.63
2023-02-27T21:34:23.750Z,102436.53
2023-02-27T21:36:52.107Z,102440.91
2023-02-27T21:39:27.485Z,102440.91
2023-02-27T21:41:54.804Z,102441.75
2023-02-27T21:44:26.267Z,102430.34
2023-02-27T21:46:55.928Z,102437.31
2023-02-27T21:49:28.373Z,102446.00
2023-02-27T21:51:55.735Z,102438.06
2023-02-27T21:54:23.103Z,102433.69
